sensor_id;sensor_type;location;lat;lon;timestamp;P1;durP1;ratioP1;P2;durP2;ratioP2
37047;SDS011;23227;48.780;9.210;2022-07-06T00:01:40;1.50;;;1.05;;
37047;SDS011;23227;48.780;9.210;2022-07-06T00:04:43;4.53;;;1.10;;
37047;SDS011;23227;48.780;9.210;2022-07-06T00:07:46;2.50;;;1.60;;
37047;SDS011;23227;48.780;9.210;2022-07-06T00:10:49;3.75;;;1.50;;
37047;SDS011;23227;48.780;9.210;2022-07-06T00:13:52;2.67;;;1.55;;
37047;SDS011;23227;48.780;9.210;2022-07-06T00:16:56;1.73;;;1.17;;
37047;SDS011;23227;48.780;9.210;2022-07-06T00:19:59;2.83;;;1.17;;
37047;SDS011;23227;48.780;9.210;2022-07-06T00:23:02;5.15;;;1.30;;
37047;SDS011;23227;48.780;9.210;2022-07-06T00:26:05;5.72;;;1.67;;
37047;SDS011;23227;48.780;9.210;2022-07-06T00:29:08;1.85;;;1.10;;
37047;SDS011;23227;48.780;9.210;2022-07-06T00:32:12;6.72;;;1.77;;
37047;SDS011;23227;48.780;9.210;2022-07-06T00:35:15;2.03;;;1.40;;
37047;SDS011;23227;48.780;9.210;2022-07-06T00:38:18;7.60;;;1.58;;
37047;SDS011;23227;48.780;9.210;2022-07-06T00:41:21;3.37;;;1.60;;
37047;SDS011;23227;48.780;9.210;2022-07-06T00:44:24;4.78;;;1.35;;
37047;SDS011;23227;48.780;9.210;2022-07-06T00:47:28;2.38;;;1.45;;
37047;SDS011;23227;48.780;9.210;2022-07-06T00:50:31;1.97;;;1.40;;
37047;SDS011;23227;48.780;9.210;2022-07-06T00:56:36;2.80;;;1.50;;
37047;SDS011;23227;48.780;9.210;2022-07-06T00:59:39;1.60;;;1.50;;
37047;SDS011;23227;48.780;9.210;2022-07-06T01:02:43;2.17;;;1.20;;
37047;SDS011;23227;48.780;9.210;2022-07-06T01:05:46;2.70;;;1.30;;
37047;SDS011;23227;48.780;9.210;2022-07-06T01:08:49;3.30;;;1.67;;
37047;SDS011;23227;48.780;9.210;2022-07-06T01:11:52;3.42;;;1.75;;
37047;SDS011;23227;48.780;9.210;2022-07-06T01:14:56;4.23;;;1.43;;
37047;SDS011;23227;48.780;9.210;2022-07-06T01:18:00;3.85;;;1.50;;
37047;SDS011;23227;48.780;9.210;2022-07-06T01:21:09;2.50;;;1.27;;
37047;SDS011;23227;48.780;9.210;2022-07-06T01:24:13;2.60;;;1.70;;
37047;SDS011;23227;48.780;9.210;2022-07-06T01:27:15;4.25;;;1.65;;
37047;SDS011;23227;48.780;9.210;2022-07-06T01:30:18;15.75;;;2.78;;
37047;SDS011;23227;48.780;9.210;2022-07-06T01:33:21;2.10;;;1.43;;
37047;SDS011;23227;48.780;9.210;2022-07-06T01:36:25;5.13;;;1.52;;
37047;SDS011;23227;48.780;9.210;2022-07-06T01:39:28;3.43;;;1.40;;
37047;SDS011;23227;48.780;9.210;2022-07-06T01:42:31;1.83;;;1.20;;
37047;SDS011;23227;48.780;9.210;2022-07-06T01:45:34;1.70;;;1.20;;
37047;SDS011;23227;48.780;9.210;2022-07-06T01:48:37;3.10;;;1.52;;
37047;SDS011;23227;48.780;9.210;2022-07-06T01:51:41;2.95;;;1.30;;
37047;SDS011;23227;48.780;9.210;2022-07-06T01:54:44;6.30;;;1.60;;
37047;SDS011;23227;48.780;9.210;2022-07-06T01:57:47;3.05;;;1.25;;
37047;SDS011;23227;48.780;9.210;2022-07-06T02:00:49;3.38;;;1.10;;
37047;SDS011;23227;48.780;9.210;2022-07-06T02:03:52;1.45;;;1.17;;
37047;SDS011;23227;48.780;9.210;2022-07-06T02:06:57;2.80;;;1.08;;
37047;SDS011;23227;48.780;9.210;2022-07-06T02:10:00;8.07;;;1.93;;
37047;SDS011;23227;48.780;9.210;2022-07-06T02:13:02;4.63;;;1.55;;
37047;SDS011;23227;48.780;9.210;2022-07-06T02:16:05;2.35;;;1.15;;
37047;SDS011;23227;48.780;9.210;2022-07-06T02:19:08;4.95;;;1.60;;
37047;SDS011;23227;48.780;9.210;2022-07-06T02:22:12;2.47;;;1.27;;
37047;SDS011;23227;48.780;9.210;2022-07-06T02:25:15;2.97;;;2.00;;
37047;SDS011;23227;48.780;9.210;2022-07-06T02:28:18;3.30;;;0.90;;
37047;SDS011;23227;48.780;9.210;2022-07-06T02:34:24;4.10;;;1.20;;
37047;SDS011;23227;48.780;9.210;2022-07-06T02:37:28;4.78;;;1.30;;
37047;SDS011;23227;48.780;9.210;2022-07-06T02:40:31;2.87;;;1.13;;
37047;SDS011;23227;48.780;9.210;2022-07-06T02:43:33;2.25;;;1.27;;
37047;SDS011;23227;48.780;9.210;2022-07-06T02:46:36;3.42;;;1.50;;
37047;SDS011;23227;48.780;9.210;2022-07-06T02:49:39;2.30;;;1.38;;
37047;SDS011;23227;48.780;9.210;2022-07-06T02:52:43;3.83;;;1.40;;
37047;SDS011;23227;48.780;9.210;2022-07-06T02:55:45;5.63;;;1.57;;
37047;SDS011;23227;48.780;9.210;2022-07-06T02:58:48;4.32;;;1.27;;
37047;SDS011;23227;48.780;9.210;2022-07-06T03:01:51;7.60;;;1.63;;
37047;SDS011;23227;48.780;9.210;2022-07-06T03:04:54;2.40;;;1.42;;
37047;SDS011;23227;48.780;9.210;2022-07-06T03:07:59;4.03;;;1.50;;
37047;SDS011;23227;48.780;9.210;2022-07-06T03:11:01;5.97;;;1.50;;
37047;SDS011;23227;48.780;9.210;2022-07-06T03:14:05;5.88;;;1.77;;
37047;SDS011;23227;48.780;9.210;2022-07-06T03:17:08;4.18;;;1.92;;
37047;SDS011;23227;48.780;9.210;2022-07-06T03:20:11;10.00;;;1.80;;
37047;SDS011;23227;48.780;9.210;2022-07-06T03:26:19;2.87;;;1.50;;
37047;SDS011;23227;48.780;9.210;2022-07-06T03:29:21;3.85;;;1.70;;
37047;SDS011;23227;48.780;9.210;2022-07-06T03:32:24;9.85;;;1.63;;
37047;SDS011;23227;48.780;9.210;2022-07-06T03:35:27;4.28;;;1.83;;
37047;SDS011;23227;48.780;9.210;2022-07-06T03:38:31;2.85;;;1.40;;
37047;SDS011;23227;48.780;9.210;2022-07-06T03:41:34;9.23;;;1.97;;
37047;SDS011;23227;48.780;9.210;2022-07-06T03:44:37;3.13;;;1.67;;
37047;SDS011;23227;48.780;9.210;2022-07-06T03:47:39;6.93;;;1.58;;
37047;SDS011;23227;48.780;9.210;2022-07-06T03:50:42;5.30;;;1.65;;
37047;SDS011;23227;48.780;9.210;2022-07-06T03:53:47;3.67;;;1.55;;
37047;SDS011;23227;48.780;9.210;2022-07-06T03:56:49;4.53;;;1.87;;
37047;SDS011;23227;48.780;9.210;2022-07-06T03:59:52;4.53;;;1.92;;
37047;SDS011;23227;48.780;9.210;2022-07-06T04:02:55;2.72;;;1.52;;
37047;SDS011;23227;48.780;9.210;2022-07-06T04:05:58;6.78;;;1.55;;
37047;SDS011;23227;48.780;9.210;2022-07-06T04:09:02;2.85;;;1.70;;
37047;SDS011;23227;48.780;9.210;2022-07-06T04:12:05;7.07;;;1.90;;
37047;SDS011;23227;48.780;9.210;2022-07-06T04:15:09;3.83;;;1.70;;
37047;SDS011;23227;48.780;9.210;2022-07-06T04:18:13;5.20;;;1.60;;
37047;SDS011;23227;48.780;9.210;2022-07-06T04:21:15;4.20;;;2.63;;
37047;SDS011;23227;48.780;9.210;2022-07-06T04:24:20;4.82;;;1.70;;
37047;SDS011;23227;48.780;9.210;2022-07-06T04:27:22;5.67;;;2.57;;
37047;SDS011;23227;48.780;9.210;2022-07-06T04:30:25;5.05;;;2.00;;
37047;SDS011;23227;48.780;9.210;2022-07-06T04:33:28;4.00;;;2.00;;
37047;SDS011;23227;48.780;9.210;2022-07-06T04:36:31;7.13;;;1.92;;
37047;SDS011;23227;48.780;9.210;2022-07-06T04:39:35;9.20;;;2.33;;
37047;SDS011;23227;48.780;9.210;2022-07-06T04:42:37;2.37;;;1.90;;
37047;SDS011;23227;48.780;9.210;2022-07-06T04:45:40;5.63;;;2.50;;
37047;SDS011;23227;48.780;9.210;2022-07-06T04:48:43;3.42;;;1.80;;
37047;SDS011;23227;48.780;9.210;2022-07-06T04:51:45;11.27;;;2.20;;
37047;SDS011;23227;48.780;9.210;2022-07-06T04:54:49;2.20;;;2.00;;
37047;SDS011;23227;48.780;9.210;2022-07-06T04:57:52;5.00;;;2.50;;
37047;SDS011;23227;48.780;9.210;2022-07-06T05:00:56;6.03;;;2.20;;
37047;SDS011;23227;48.780;9.210;2022-07-06T05:03:59;3.25;;;2.28;;
37047;SDS011;23227;48.780;9.210;2022-07-06T05:07:02;4.57;;;2.58;;
37047;SDS011;23227;48.780;9.210;2022-07-06T05:13:10;5.17;;;2.33;;
37047;SDS011;23227;48.780;9.210;2022-07-06T05:16:13;7.80;;;2.50;;
37047;SDS011;23227;48.780;9.210;2022-07-06T05:19:15;4.70;;;2.60;;
37047;SDS011;23227;48.780;9.210;2022-07-06T05:22:18;7.25;;;2.47;;
37047;SDS011;23227;48.780;9.210;2022-07-06T05:25:22;4.13;;;2.55;;
37047;SDS011;23227;48.780;9.210;2022-07-06T05:28:25;4.70;;;2.67;;
37047;SDS011;23227;48.780;9.210;2022-07-06T05:31:35;3.73;;;2.10;;
37047;SDS011;23227;48.780;9.210;2022-07-06T05:34:38;4.78;;;2.15;;
37047;SDS011;23227;48.780;9.210;2022-07-06T05:37:41;8.75;;;2.47;;
37047;SDS011;23227;48.780;9.210;2022-07-06T05:40:45;5.38;;;2.22;;
37047;SDS011;23227;48.780;9.210;2022-07-06T05:43:48;5.37;;;1.90;;
37047;SDS011;23227;48.780;9.210;2022-07-06T05:46:50;9.23;;;1.90;;
37047;SDS011;23227;48.780;9.210;2022-07-06T05:50:13;3.87;;;2.00;;
37047;SDS011;23227;48.780;9.210;2022-07-06T05:53:15;3.40;;;1.97;;
37047;SDS011;23227;48.780;9.210;2022-07-06T05:56:22;5.73;;;2.10;;
37047;SDS011;23227;48.780;9.210;2022-07-06T05:59:24;4.00;;;2.27;;
37047;SDS011;23227;48.780;9.210;2022-07-06T06:02:35;3.15;;;2.10;;
37047;SDS011;23227;48.780;9.210;2022-07-06T06:05:38;4.93;;;2.53;;
37047;SDS011;23227;48.780;9.210;2022-07-06T06:08:41;3.38;;;2.00;;
37047;SDS011;23227;48.780;9.210;2022-07-06T06:11:45;7.13;;;2.20;;
37047;SDS011;23227;48.780;9.210;2022-07-06T06:14:48;3.33;;;1.87;;
37047;SDS011;23227;48.780;9.210;2022-07-06T06:17:51;5.47;;;2.38;;
37047;SDS011;23227;48.780;9.210;2022-07-06T06:20:54;9.50;;;2.35;;
37047;SDS011;23227;48.780;9.210;2022-07-06T06:23:57;4.95;;;1.85;;
37047;SDS011;23227;48.780;9.210;2022-07-06T06:27:01;6.90;;;2.10;;
37047;SDS011;23227;48.780;9.210;2022-07-06T06:30:05;3.37;;;1.67;;
37047;SDS011;23227;48.780;9.210;2022-07-06T06:33:09;10.60;;;2.07;;
37047;SDS011;23227;48.780;9.210;2022-07-06T06:36:12;4.27;;;2.10;;
37047;SDS011;23227;48.780;9.210;2022-07-06T06:39:15;3.30;;;1.63;;
37047;SDS011;23227;48.780;9.210;2022-07-06T06:42:19;3.97;;;1.70;;
37047;SDS011;23227;48.780;9.210;2022-07-06T06:45:22;3.90;;;1.70;;
37047;SDS011;23227;48.780;9.210;2022-07-06T06:48:25;3.70;;;2.00;;
37047;SDS011;23227;48.780;9.210;2022-07-06T06:51:28;10.97;;;2.47;;
37047;SDS011;23227;48.780;9.210;2022-07-06T06:54:31;4.18;;;2.15;;
37047;SDS011;23227;48.780;9.210;2022-07-06T06:57:35;6.75;;;2.58;;
37047;SDS011;23227;48.780;9.210;2022-07-06T07:00:38;4.97;;;2.53;;
37047;SDS011;23227;48.780;9.210;2022-07-06T07:03:41;7.20;;;1.70;;
37047;SDS011;23227;48.780;9.210;2022-07-06T07:06:43;2.80;;;2.13;;
37047;SDS011;23227;48.780;9.210;2022-07-06T07:09:46;6.05;;;1.92;;
37047;SDS011;23227;48.780;9.210;2022-07-06T07:12:50;6.28;;;1.90;;
37047;SDS011;23227;48.780;9.210;2022-07-06T07:15:53;7.80;;;1.77;;
37047;SDS011;23227;48.780;9.210;2022-07-06T07:18:56;4.40;;;1.90;;
37047;SDS011;23227;48.780;9.210;2022-07-06T07:21:58;2.85;;;2.13;;
37047;SDS011;23227;48.780;9.210;2022-07-06T07:25:01;3.80;;;1.73;;
37047;SDS011;23227;48.780;9.210;2022-07-06T07:31:08;8.03;;;2.00;;
37047;SDS011;23227;48.780;9.210;2022-07-06T07:34:11;3.70;;;1.70;;
37047;SDS011;23227;48.780;9.210;2022-07-06T07:37:14;4.38;;;1.60;;
37047;SDS011;23227;48.780;9.210;2022-07-06T07:40:17;3.40;;;2.08;;
37047;SDS011;23227;48.780;9.210;2022-07-06T07:43:21;2.10;;;1.60;;
37047;SDS011;23227;48.780;9.210;2022-07-06T07:46:24;6.30;;;2.00;;
37047;SDS011;23227;48.780;9.210;2022-07-06T07:49:27;3.83;;;1.83;;
37047;SDS011;23227;48.780;9.210;2022-07-06T07:52:29;3.42;;;1.67;;
37047;SDS011;23227;48.780;9.210;2022-07-06T07:55:32;5.50;;;1.73;;
37047;SDS011;23227;48.780;9.210;2022-07-06T07:58:44;2.53;;;1.87;;
37047;SDS011;23227;48.780;9.210;2022-07-06T08:01:49;5.60;;;2.27;;
37047;SDS011;23227;48.780;9.210;2022-07-06T08:04:52;3.92;;;1.60;;
37047;SDS011;23227;48.780;9.210;2022-07-06T08:07:55;2.65;;;1.70;;
37047;SDS011;23227;48.780;9.210;2022-07-06T08:10:58;4.22;;;2.28;;
37047;SDS011;23227;48.780;9.210;2022-07-06T08:14:22;4.47;;;2.03;;
37047;SDS011;23227;48.780;9.210;2022-07-06T08:17:25;8.13;;;2.23;;
37047;SDS011;23227;48.780;9.210;2022-07-06T08:20:27;6.90;;;1.80;;
37047;SDS011;23227;48.780;9.210;2022-07-06T08:23:30;3.92;;;1.80;;
37047;SDS011;23227;48.780;9.210;2022-07-06T08:26:36;20.97;;;2.70;;
37047;SDS011;23227;48.780;9.210;2022-07-06T08:32:43;6.50;;;2.00;;
37047;SDS011;23227;48.780;9.210;2022-07-06T08:36:06;4.88;;;1.70;;
37047;SDS011;23227;48.780;9.210;2022-07-06T08:39:09;4.70;;;1.67;;
37047;SDS011;23227;48.780;9.210;2022-07-06T08:42:12;1.92;;;1.63;;
37047;SDS011;23227;48.780;9.210;2022-07-06T08:45:16;6.72;;;2.30;;
37047;SDS011;23227;48.780;9.210;2022-07-06T08:48:18;3.30;;;2.10;;
37047;SDS011;23227;48.780;9.210;2022-07-06T08:54:30;5.90;;;1.77;;
37047;SDS011;23227;48.780;9.210;2022-07-06T08:57:33;3.97;;;1.60;;
37047;SDS011;23227;48.780;9.210;2022-07-06T09:00:37;3.25;;;1.63;;
37047;SDS011;23227;48.780;9.210;2022-07-06T09:03:40;2.60;;;1.80;;
37047;SDS011;23227;48.780;9.210;2022-07-06T09:06:44;5.80;;;2.47;;
37047;SDS011;23227;48.780;9.210;2022-07-06T09:09:49;5.20;;;2.50;;
37047;SDS011;23227;48.780;9.210;2022-07-06T09:12:52;5.77;;;1.80;;
37047;SDS011;23227;48.780;9.210;2022-07-06T09:19:23;3.90;;;1.97;;
37047;SDS011;23227;48.780;9.210;2022-07-06T09:22:26;3.65;;;1.90;;
37047;SDS011;23227;48.780;9.210;2022-07-06T09:25:30;3.17;;;1.70;;
37047;SDS011;23227;48.780;9.210;2022-07-06T09:28:40;5.37;;;1.53;;
37047;SDS011;23227;48.780;9.210;2022-07-06T09:31:45;2.90;;;1.80;;
37047;SDS011;23227;48.780;9.210;2022-07-06T09:34:58;2.23;;;1.60;;
37047;SDS011;23227;48.780;9.210;2022-07-06T09:38:04;5.97;;;2.13;;
37047;SDS011;23227;48.780;9.210;2022-07-06T09:41:08;2.43;;;1.57;;
37047;SDS011;23227;48.780;9.210;2022-07-06T09:44:10;2.92;;;1.73;;
37047;SDS011;23227;48.780;9.210;2022-07-06T09:47:14;4.35;;;1.60;;
37047;SDS011;23227;48.780;9.210;2022-07-06T09:50:17;4.87;;;1.60;;
37047;SDS011;23227;48.780;9.210;2022-07-06T09:53:20;4.53;;;1.50;;
37047;SDS011;23227;48.780;9.210;2022-07-06T09:56:34;3.27;;;1.90;;
37047;SDS011;23227;48.780;9.210;2022-07-06T09:59:39;6.27;;;1.80;;
37047;SDS011;23227;48.780;9.210;2022-07-06T10:02:43;6.28;;;2.08;;
37047;SDS011;23227;48.780;9.210;2022-07-06T10:05:46;5.37;;;2.23;;
37047;SDS011;23227;48.780;9.210;2022-07-06T10:08:51;4.47;;;1.80;;
37047;SDS011;23227;48.780;9.210;2022-07-06T10:14:57;5.63;;;1.60;;
37047;SDS011;23227;48.780;9.210;2022-07-06T10:18:01;7.60;;;2.00;;
37047;SDS011;23227;48.780;9.210;2022-07-06T10:21:05;3.17;;;2.13;;
37047;SDS011;23227;48.780;9.210;2022-07-06T10:24:09;3.07;;;1.90;;
37047;SDS011;23227;48.780;9.210;2022-07-06T10:27:12;4.80;;;1.80;;
37047;SDS011;23227;48.780;9.210;2022-07-06T10:30:15;5.63;;;1.63;;
37047;SDS011;23227;48.780;9.210;2022-07-06T10:33:19;4.60;;;1.33;;
37047;SDS011;23227;48.780;9.210;2022-07-06T10:36:28;6.73;;;1.60;;
37047;SDS011;23227;48.780;9.210;2022-07-06T10:39:32;3.05;;;1.83;;
37047;SDS011;23227;48.780;9.210;2022-07-06T10:42:56;5.67;;;1.90;;
37047;SDS011;23227;48.780;9.210;2022-07-06T10:45:59;2.90;;;1.80;;
37047;SDS011;23227;48.780;9.210;2022-07-06T10:52:06;4.60;;;1.87;;
37047;SDS011;23227;48.780;9.210;2022-07-06T10:55:13;4.28;;;2.00;;
37047;SDS011;23227;48.780;9.210;2022-07-06T10:58:40;4.03;;;1.80;;
37047;SDS011;23227;48.780;9.210;2022-07-06T11:09:03;3.93;;;1.50;;
37047;SDS011;23227;48.780;9.210;2022-07-06T11:12:11;5.13;;;1.43;;
37047;SDS011;23227;48.780;9.210;2022-07-06T11:15:24;2.33;;;1.50;;
37047;SDS011;23227;48.780;9.210;2022-07-06T11:18:59;7.97;;;2.13;;
37047;SDS011;23227;48.780;9.210;2022-07-06T11:22:09;5.47;;;1.53;;
37047;SDS011;23227;48.780;9.210;2022-07-06T11:25:12;5.43;;;1.77;;
37047;SDS011;23227;48.780;9.210;2022-07-06T11:28:16;5.27;;;2.00;;
37047;SDS011;23227;48.780;9.210;2022-07-06T11:31:19;4.40;;;2.47;;
37047;SDS011;23227;48.780;9.210;2022-07-06T11:37:27;3.83;;;1.73;;
37047;SDS011;23227;48.780;9.210;2022-07-06T11:40:29;3.13;;;1.50;;
37047;SDS011;23227;48.780;9.210;2022-07-06T11:43:32;4.13;;;1.73;;
37047;SDS011;23227;48.780;9.210;2022-07-06T11:46:35;6.97;;;2.15;;
37047;SDS011;23227;48.780;9.210;2022-07-06T11:52:42;3.38;;;1.67;;
37047;SDS011;23227;48.780;9.210;2022-07-06T11:55:45;5.27;;;1.60;;
37047;SDS011;23227;48.780;9.210;2022-07-06T11:58:48;3.47;;;2.38;;
37047;SDS011;23227;48.780;9.210;2022-07-06T12:01:57;4.87;;;1.70;;
37047;SDS011;23227;48.780;9.210;2022-07-06T12:05:01;4.13;;;2.00;;
37047;SDS011;23227;48.780;9.210;2022-07-06T12:08:06;8.53;;;1.70;;
37047;SDS011;23227;48.780;9.210;2022-07-06T12:11:10;7.47;;;2.30;;
37047;SDS011;23227;48.780;9.210;2022-07-06T12:14:14;2.77;;;1.70;;
37047;SDS011;23227;48.780;9.210;2022-07-06T12:17:18;5.87;;;2.03;;
37047;SDS011;23227;48.780;9.210;2022-07-06T12:20:24;6.67;;;1.67;;
37047;SDS011;23227;48.780;9.210;2022-07-06T12:23:37;3.38;;;1.75;;
37047;SDS011;23227;48.780;9.210;2022-07-06T12:26:40;4.43;;;2.00;;
37047;SDS011;23227;48.780;9.210;2022-07-06T12:29:43;4.95;;;1.77;;
37047;SDS011;23227;48.780;9.210;2022-07-06T12:32:47;5.15;;;1.77;;
37047;SDS011;23227;48.780;9.210;2022-07-06T12:36:13;5.83;;;2.10;;
37047;SDS011;23227;48.780;9.210;2022-07-06T12:39:18;5.13;;;1.80;;
37047;SDS011;23227;48.780;9.210;2022-07-06T12:42:22;2.87;;;1.40;;
37047;SDS011;23227;48.780;9.210;2022-07-06T12:48:29;3.23;;;1.40;;
37047;SDS011;23227;48.780;9.210;2022-07-06T12:54:58;7.17;;;1.50;;
37047;SDS011;23227;48.780;9.210;2022-07-06T12:58:15;2.43;;;1.87;;
37047;SDS011;23227;48.780;9.210;2022-07-06T13:01:20;2.57;;;1.80;;
37047;SDS011;23227;48.780;9.210;2022-07-06T13:04:23;4.22;;;1.70;;
37047;SDS011;23227;48.780;9.210;2022-07-06T13:07:26;4.07;;;1.35;;
37047;SDS011;23227;48.780;9.210;2022-07-06T13:10:33;3.97;;;1.33;;
37047;SDS011;23227;48.780;9.210;2022-07-06T13:13:42;3.70;;;2.00;;
37047;SDS011;23227;48.780;9.210;2022-07-06T13:16:45;2.38;;;1.10;;
37047;SDS011;23227;48.780;9.210;2022-07-06T13:19:49;4.90;;;1.08;;
37047;SDS011;23227;48.780;9.210;2022-07-06T13:22:52;4.97;;;1.25;;
37047;SDS011;23227;48.780;9.210;2022-07-06T13:25:56;3.90;;;1.33;;
37047;SDS011;23227;48.780;9.210;2022-07-06T13:28:59;5.57;;;1.45;;
37047;SDS011;23227;48.780;9.210;2022-07-06T13:32:02;4.57;;;1.45;;
37047;SDS011;23227;48.780;9.210;2022-07-06T13:35:06;3.67;;;1.27;;
37047;SDS011;23227;48.780;9.210;2022-07-06T13:38:11;6.97;;;1.42;;
37047;SDS011;23227;48.780;9.210;2022-07-06T13:41:17;3.97;;;1.45;;
37047;SDS011;23227;48.780;9.210;2022-07-06T13:44:20;3.13;;;1.10;;
37047;SDS011;23227;48.780;9.210;2022-07-06T13:47:23;5.65;;;1.40;;
37047;SDS011;23227;48.780;9.210;2022-07-06T13:50:25;5.72;;;1.63;;
37047;SDS011;23227;48.780;9.210;2022-07-06T13:53:33;3.75;;;1.98;;
37047;SDS011;23227;48.780;9.210;2022-07-06T13:56:38;4.10;;;1.75;;
37047;SDS011;23227;48.780;9.210;2022-07-06T13:59:41;7.90;;;1.40;;
37047;SDS011;23227;48.780;9.210;2022-07-06T14:02:44;2.33;;;1.30;;
37047;SDS011;23227;48.780;9.210;2022-07-06T14:05:47;4.70;;;1.30;;
37047;SDS011;23227;48.780;9.210;2022-07-06T14:08:49;2.60;;;1.33;;
37047;SDS011;23227;48.780;9.210;2022-07-06T14:11:53;2.03;;;1.10;;
37047;SDS011;23227;48.780;9.210;2022-07-06T14:14:56;5.20;;;1.40;;
37047;SDS011;23227;48.780;9.210;2022-07-06T14:21:02;3.35;;;1.25;;
37047;SDS011;23227;48.780;9.210;2022-07-06T14:24:05;3.95;;;1.45;;
37047;SDS011;23227;48.780;9.210;2022-07-06T14:27:09;3.65;;;1.20;;
37047;SDS011;23227;48.780;9.210;2022-07-06T14:30:12;3.45;;;1.00;;
37047;SDS011;23227;48.780;9.210;2022-07-06T14:33:15;3.45;;;1.00;;
37047;SDS011;23227;48.780;9.210;2022-07-06T14:36:18;2.63;;;0.98;;
37047;SDS011;23227;48.780;9.210;2022-07-06T14:39:21;4.50;;;1.10;;
37047;SDS011;23227;48.780;9.210;2022-07-06T14:42:25;4.70;;;1.42;;
37047;SDS011;23227;48.780;9.210;2022-07-06T14:45:28;3.63;;;1.13;;
37047;SDS011;23227;48.780;9.210;2022-07-06T14:48:31;7.63;;;1.00;;
37047;SDS011;23227;48.780;9.210;2022-07-06T14:51:34;4.25;;;1.30;;
37047;SDS011;23227;48.780;9.210;2022-07-06T14:54:37;2.92;;;1.02;;
37047;SDS011;23227;48.780;9.210;2022-07-06T14:57:41;1.58;;;1.10;;
37047;SDS011;23227;48.780;9.210;2022-07-06T15:00:44;3.85;;;1.05;;
37047;SDS011;23227;48.780;9.210;2022-07-06T15:03:48;3.40;;;1.35;;
37047;SDS011;23227;48.780;9.210;2022-07-06T15:06:51;1.77;;;0.80;;
37047;SDS011;23227;48.780;9.210;2022-07-06T15:09:56;3.83;;;1.20;;
37047;SDS011;23227;48.780;9.210;2022-07-06T15:13:01;3.20;;;1.10;;
37047;SDS011;23227;48.780;9.210;2022-07-06T15:16:04;1.05;;;0.80;;
37047;SDS011;23227;48.780;9.210;2022-07-06T15:19:07;5.20;;;0.93;;
37047;SDS011;23227;48.780;9.210;2022-07-06T15:22:09;2.78;;;1.42;;
37047;SDS011;23227;48.780;9.210;2022-07-06T15:25:12;2.75;;;1.00;;
37047;SDS011;23227;48.780;9.210;2022-07-06T15:28:16;3.28;;;0.93;;
37047;SDS011;23227;48.780;9.210;2022-07-06T15:31:20;4.38;;;1.42;;
37047;SDS011;23227;48.780;9.210;2022-07-06T15:37:26;4.68;;;1.35;;
37047;SDS011;23227;48.780;9.210;2022-07-06T15:43:36;1.98;;;1.00;;
37047;SDS011;23227;48.780;9.210;2022-07-06T15:46:39;5.07;;;1.27;;
37047;SDS011;23227;48.780;9.210;2022-07-06T15:49:42;3.17;;;1.00;;
37047;SDS011;23227;48.780;9.210;2022-07-06T15:52:52;2.33;;;1.05;;
37047;SDS011;23227;48.780;9.210;2022-07-06T15:55:55;2.38;;;1.08;;
37047;SDS011;23227;48.780;9.210;2022-07-06T15:58:59;2.17;;;0.77;;
37047;SDS011;23227;48.780;9.210;2022-07-06T16:02:02;2.47;;;1.33;;
37047;SDS011;23227;48.780;9.210;2022-07-06T16:05:06;1.65;;;1.10;;
37047;SDS011;23227;48.780;9.210;2022-07-06T16:08:09;1.75;;;0.80;;
37047;SDS011;23227;48.780;9.210;2022-07-06T16:11:32;1.52;;;1.42;;
37047;SDS011;23227;48.780;9.210;2022-07-06T16:14:37;4.28;;;0.90;;
37047;SDS011;23227;48.780;9.210;2022-07-06T16:17:39;2.08;;;0.90;;
37047;SDS011;23227;48.780;9.210;2022-07-06T16:20:42;4.32;;;1.02;;
37047;SDS011;23227;48.780;9.210;2022-07-06T16:23:45;1.77;;;0.90;;
37047;SDS011;23227;48.780;9.210;2022-07-06T16:26:48;0.93;;;0.80;;
37047;SDS011;23227;48.780;9.210;2022-07-06T16:32:55;1.05;;;0.95;;
37047;SDS011;23227;48.780;9.210;2022-07-06T16:35:58;4.60;;;1.30;;
37047;SDS011;23227;48.780;9.210;2022-07-06T16:39:00;1.98;;;0.85;;
37047;SDS011;23227;48.780;9.210;2022-07-06T16:45:08;1.88;;;1.00;;
37047;SDS011;23227;48.780;9.210;2022-07-06T16:48:11;2.33;;;1.08;;
37047;SDS011;23227;48.780;9.210;2022-07-06T16:54:16;1.15;;;0.70;;
37047;SDS011;23227;48.780;9.210;2022-07-06T17:00:23;6.03;;;1.13;;
37047;SDS011;23227;48.780;9.210;2022-07-06T17:03:26;1.90;;;0.90;;
37047;SDS011;23227;48.780;9.210;2022-07-06T17:06:30;1.10;;;0.75;;
37047;SDS011;23227;48.780;9.210;2022-07-06T17:09:32;2.60;;;0.73;;
37047;SDS011;23227;48.780;9.210;2022-07-06T17:12:35;3.83;;;1.15;;
37047;SDS011;23227;48.780;9.210;2022-07-06T17:15:39;1.48;;;0.80;;
37047;SDS011;23227;48.780;9.210;2022-07-06T17:18:42;4.43;;;0.80;;
37047;SDS011;23227;48.780;9.210;2022-07-06T17:21:45;3.70;;;1.08;;
37047;SDS011;23227;48.780;9.210;2022-07-06T17:24:54;8.40;;;1.60;;
37047;SDS011;23227;48.780;9.210;2022-07-06T17:27:57;2.33;;;1.07;;
37047;SDS011;23227;48.780;9.210;2022-07-06T17:31:02;1.60;;;1.08;;
37047;SDS011;23227;48.780;9.210;2022-07-06T17:34:04;0.83;;;0.67;;
37047;SDS011;23227;48.780;9.210;2022-07-06T17:37:08;1.97;;;1.20;;
37047;SDS011;23227;48.780;9.210;2022-07-06T17:43:14;4.25;;;1.00;;
37047;SDS011;23227;48.780;9.210;2022-07-06T17:49:21;2.07;;;1.20;;
37047;SDS011;23227;48.780;9.210;2022-07-06T17:52:23;19.55;;;2.13;;
37047;SDS011;23227;48.780;9.210;2022-07-06T17:55:26;3.08;;;1.50;;
37047;SDS011;23227;48.780;9.210;2022-07-06T17:58:29;4.75;;;1.42;;
37047;SDS011;23227;48.780;9.210;2022-07-06T18:01:33;2.72;;;1.15;;
37047;SDS011;23227;48.780;9.210;2022-07-06T18:04:36;2.63;;;1.70;;
37047;SDS011;23227;48.780;9.210;2022-07-06T18:07:39;9.13;;;1.80;;
37047;SDS011;23227;48.780;9.210;2022-07-06T18:10:41;3.47;;;1.38;;
37047;SDS011;23227;48.780;9.210;2022-07-06T18:13:44;3.00;;;1.60;;
37047;SDS011;23227;48.780;9.210;2022-07-06T18:16:49;5.40;;;1.50;;
37047;SDS011;23227;48.780;9.210;2022-07-06T18:19:52;2.87;;;1.67;;
37047;SDS011;23227;48.780;9.210;2022-07-06T18:22:55;2.78;;;1.40;;
37047;SDS011;23227;48.780;9.210;2022-07-06T18:25:58;4.82;;;1.70;;
37047;SDS011;23227;48.780;9.210;2022-07-06T18:29:03;4.20;;;1.60;;
37047;SDS011;23227;48.780;9.210;2022-07-06T18:32:07;5.85;;;1.58;;
37047;SDS011;23227;48.780;9.210;2022-07-06T18:35:10;3.70;;;1.70;;
37047;SDS011;23227;48.780;9.210;2022-07-06T18:38:13;2.70;;;1.60;;
37047;SDS011;23227;48.780;9.210;2022-07-06T18:41:16;2.75;;;1.25;;
37047;SDS011;23227;48.780;9.210;2022-07-06T18:47:23;3.90;;;1.40;;
37047;SDS011;23227;48.780;9.210;2022-07-06T18:50:26;7.60;;;1.67;;
37047;SDS011;23227;48.780;9.210;2022-07-06T18:53:28;9.50;;;1.20;;
37047;SDS011;23227;48.780;9.210;2022-07-06T18:56:33;1.70;;;1.00;;
37047;SDS011;23227;48.780;9.210;2022-07-06T18:59:35;2.35;;;1.10;;
37047;SDS011;23227;48.780;9.210;2022-07-06T19:02:45;4.20;;;1.27;;
37047;SDS011;23227;48.780;9.210;2022-07-06T19:05:47;1.57;;;1.20;;
37047;SDS011;23227;48.780;9.210;2022-07-06T19:08:51;2.33;;;1.30;;
37047;SDS011;23227;48.780;9.210;2022-07-06T19:11:54;3.75;;;1.40;;
37047;SDS011;23227;48.780;9.210;2022-07-06T19:14:57;5.07;;;1.35;;
37047;SDS011;23227;48.780;9.210;2022-07-06T19:18:01;4.30;;;1.42;;
37047;SDS011;23227;48.780;9.210;2022-07-06T19:21:04;1.73;;;1.10;;
37047;SDS011;23227;48.780;9.210;2022-07-06T19:24:07;3.40;;;1.55;;
37047;SDS011;23227;48.780;9.210;2022-07-06T19:27:12;3.20;;;1.10;;
37047;SDS011;23227;48.780;9.210;2022-07-06T19:30:15;2.13;;;1.25;;
37047;SDS011;23227;48.780;9.210;2022-07-06T19:33:19;5.03;;;1.10;;
37047;SDS011;23227;48.780;9.210;2022-07-06T19:36:22;6.17;;;1.20;;
37047;SDS011;23227;48.780;9.210;2022-07-06T19:39:24;3.25;;;1.30;;
37047;SDS011;23227;48.780;9.210;2022-07-06T19:42:28;1.20;;;0.97;;
37047;SDS011;23227;48.780;9.210;2022-07-06T19:45:31;0.98;;;0.73;;
37047;SDS011;23227;48.780;9.210;2022-07-06T19:48:35;2.67;;;0.95;;
37047;SDS011;23227;48.780;9.210;2022-07-06T19:51:38;4.23;;;1.00;;